createdAt,value
2022-10-23T00:01:33.976Z,6.10
2022-10-23T00:04:21.010Z,7.87
2022-10-23T00:06:53.350Z,7.22
2022-10-23T00:09:26.311Z,6.75
2022-10-23T00:11:58.478Z,9.28
2022-10-23T00:14:30.326Z,8.78
2022-10-23T00:17:02.217Z,7.00
2022-10-23T00:19:34.595Z,15.18
2022-10-23T00:22:08.172Z,6.95
2022-10-23T00:24:40.138Z,7.43
2022-10-23T00:27:12.120Z,10.38
2022-10-23T00:29:46.162Z,10.25
2022-10-23T00:32:18.240Z,9.30
2022-10-23T00:34:50.522Z,12.45
2022-10-23T00:37:22.783Z,8.15
2022-10-23T00:39:55.006Z,7.55
2022-10-23T00:42:27.137Z,7.33
2022-10-23T00:45:07.626Z,7.75
2022-10-23T00:47:39.759Z,9.08
2022-10-23T00:50:11.786Z,13.65
2022-10-23T00:52:49.796Z,14.80
2022-10-23T00:55:23.903Z,13.38
2022-10-23T00:57:56.099Z,8.03
2022-10-23T01:00:31.069Z,7.37
2022-10-23T01:03:04.421Z,10.10
2022-10-23T01:05:42.347Z,8.18
2022-10-23T01:08:20.027Z,8.05
2022-10-23T01:10:55.299Z,9.68
2022-10-23T01:13:34.743Z,9.30
2022-10-23T01:16:27.293Z,10.23
2022-10-23T01:19:02.445Z,8.75
2022-10-23T01:21:51.939Z,9.35
2022-10-23T01:24:29.392Z,9.63
2022-10-23T01:27:26.851Z,11.28
2022-10-23T01:30:13.900Z,10.13
2022-10-23T01:33:05.097Z,9.70
2022-10-23T01:35:41.517Z,10.55
2022-10-23T01:38:19.347Z,11.12
2022-10-23T01:41:01.927Z,9.45
2022-10-23T01:43:37.395Z,11.33
2022-10-23T01:46:12.670Z,11.57
2022-10-23T01:48:47.554Z,11.57
2022-10-23T01:51:21.747Z,9.33
2022-10-23T01:53:57.647Z,15.20
2022-10-23T01:56:35.743Z,15.88
2022-10-23T01:59:13.428Z,8.53
2022-10-23T02:01:48.666Z,13.48
2022-10-23T02:04:23.818Z,13.83
2022-10-23T02:06:55.811Z,10.82
2022-10-23T02:09:28.143Z,9.38
2022-10-23T02:12:06.057Z,14.65
2022-10-23T02:14:43.835Z,10.90
2022-10-23T02:17:18.950Z,9.50
2022-10-23T02:19:53.764Z,10.88
2022-10-23T02:22:30.223Z,12.68
2022-10-23T02:25:14.072Z,11.25
2022-10-23T02:27:56.392Z,10.50
2022-10-23T02:30:31.601Z,9.43
2022-10-23T02:33:07.609Z,8.90
2022-10-23T02:38:36.024Z,10.45
2022-10-23T02:41:41.357Z,9.08
2022-10-23T02:44:20.692Z,7.62
2022-10-23T02:47:01.177Z,10.35
2022-10-23T02:49:44.863Z,8.28
2022-10-23T02:52:24.277Z,10.08
2022-10-23T02:55:08.026Z,9.80
2022-10-23T02:57:47.637Z,9.38
2022-10-23T03:00:21.741Z,12.37
2022-10-23T03:05:36.565Z,10.00
2022-10-23T03:08:10.821Z,11.50
2022-10-23T03:10:43.545Z,11.68
2022-10-23T03:13:15.485Z,11.45
2022-10-23T03:15:47.688Z,16.42
2022-10-23T03:18:19.652Z,12.70
2022-10-23T03:20:53.195Z,10.63
2022-10-23T03:23:26.410Z,19.57
2022-10-23T03:25:58.656Z,11.75
2022-10-23T03:28:41.326Z,15.38
2022-10-23T03:31:13.292Z,12.53
2022-10-23T03:33:45.364Z,19.25
2022-10-23T03:36:17.314Z,11.88
2022-10-23T03:38:49.480Z,15.50
2022-10-23T03:41:21.363Z,12.33
2022-10-23T03:43:53.369Z,11.40
2022-10-23T03:46:26.639Z,17.05
2022-10-23T03:48:59.623Z,13.35
2022-10-23T03:51:31.709Z,13.95
2022-10-23T03:54:04.352Z,14.03
2022-10-23T03:56:36.346Z,13.75
2022-10-23T03:59:08.432Z,16.37
2022-10-23T04:01:40.558Z,19.48
2022-10-23T04:04:13.990Z,18.37
2022-10-23T04:06:46.016Z,12.80
2022-10-23T04:09:18.042Z,13.10
2022-10-23T04:11:50.154Z,17.20
2022-10-23T04:14:22.082Z,14.40
2022-10-23T04:16:54.160Z,12.47
2022-10-23T04:19:26.318Z,15.43
2022-10-23T04:21:59.870Z,16.77
2022-10-23T04:24:31.857Z,15.70
2022-10-23T04:27:04.006Z,21.25
2022-10-23T04:29:35.920Z,16.82
2022-10-23T04:32:09.056Z,15.55
2022-10-23T04:34:41.224Z,8.55
2022-10-23T04:37:13.110Z,18.67
2022-10-23T04:39:45.015Z,12.47
2022-10-23T04:42:18.293Z,17.35
2022-10-23T04:44:51.728Z,15.13
2022-10-23T04:47:23.903Z,18.73
2022-10-23T04:50:00.447Z,16.50
2022-10-23T04:52:43.314Z,13.72
2022-10-23T04:55:33.108Z,14.28
2022-10-23T04:58:12.458Z,17.77
2022-10-23T05:00:46.003Z,15.83
2022-10-23T05:03:20.998Z,12.03
2022-10-23T05:05:55.823Z,16.37
2022-10-23T05:08:47.334Z,12.13
2022-10-23T05:11:27.135Z,13.38
2022-10-23T05:13:59.191Z,18.42
2022-10-23T05:16:55.245Z,12.18
2022-10-23T05:19:30.060Z,17.92
2022-10-23T05:22:03.249Z,15.28
2022-10-23T05:24:36.815Z,14.65
2022-10-23T05:27:08.992Z,16.25
2022-10-23T05:29:42.602Z,15.07
2022-10-23T05:32:16.820Z,13.70
2022-10-23T05:34:49.813Z,18.57
2022-10-23T05:37:22.194Z,18.95
2022-10-23T05:39:55.847Z,16.35
2022-10-23T05:42:27.811Z,14.20
2022-10-23T05:45:01.334Z,16.57
2022-10-23T05:47:50.133Z,19.15
2022-10-23T05:50:23.901Z,15.10
2022-10-23T05:53:14.191Z,16.23
2022-10-23T05:55:50.754Z,14.73
2022-10-23T05:58:36.729Z,14.28
2022-10-23T06:01:26.324Z,19.30
2022-10-23T06:04:01.159Z,9.18
2022-10-23T06:06:34.784Z,17.65
2022-10-23T06:09:06.773Z,15.08
2022-10-23T06:11:40.364Z,16.65
2022-10-23T06:14:13.866Z,13.43
2022-10-23T06:16:46.368Z,17.25
2022-10-23T06:19:19.256Z,18.27
2022-10-23T06:21:51.852Z,20.77
2022-10-23T06:24:25.534Z,18.12
2022-10-23T06:26:59.162Z,15.80
2022-10-23T06:29:38.689Z,11.22
2022-10-23T06:32:11.430Z,12.78
2022-10-23T06:34:43.480Z,20.37
2022-10-23T06:37:15.670Z,14.70
2022-10-23T06:39:52.378Z,15.23
2022-10-23T06:42:28.643Z,16.07
2022-10-23T06:45:06.289Z,9.43
2022-10-23T06:47:38.220Z,17.42
2022-10-23T06:50:30.278Z,17.48
2022-10-23T06:53:02.364Z,19.10
2022-10-23T06:55:34.924Z,20.82
2022-10-23T06:58:10.503Z,20.20
2022-10-23T07:00:44.735Z,20.68
2022-10-23T07:03:16.865Z,19.92
2022-10-23T07:05:50.662Z,19.67
2022-10-23T07:08:23.984Z,17.82
2022-10-23T07:10:57.138Z,19.93
2022-10-23T07:13:29.288Z,16.45
2022-10-23T07:16:14.565Z,15.05
2022-10-23T07:18:47.838Z,18.73
2022-10-23T07:21:37.067Z,17.90
2022-10-23T07:24:27.131Z,22.40
2022-10-23T07:27:00.101Z,16.87
2022-10-23T07:29:33.572Z,16.17
2022-10-23T07:34:56.082Z,17.60
2022-10-23T07:37:30.797Z,19.32
2022-10-23T07:40:08.736Z,16.77
2022-10-23T07:42:43.164Z,14.58
2022-10-23T07:45:15.742Z,15.30
2022-10-23T07:47:53.425Z,16.45
2022-10-23T07:50:27.450Z,32.73
2022-10-23T07:53:00.659Z,16.93
2022-10-23T07:58:07.058Z,12.95
2022-10-23T08:00:48.868Z,19.92
2022-10-23T08:03:22.715Z,18.25
2022-10-23T08:05:55.661Z,16.95
2022-10-23T08:08:28.050Z,31.40
2022-10-23T08:11:02.253Z,17.87
2022-10-23T08:13:36.140Z,19.55
2022-10-23T08:16:10.033Z,22.85
2022-10-23T08:19:00.081Z,22.75
2022-10-23T08:21:32.858Z,25.30
2022-10-23T08:24:05.186Z,21.48
2022-10-23T08:26:37.521Z,24.80
2022-10-23T08:29:09.838Z,25.88
2022-10-23T08:31:43.019Z,18.15
2022-10-23T08:34:20.997Z,18.20
2022-10-23T08:36:53.646Z,22.85
2022-10-23T08:39:25.941Z,19.23
2022-10-23T08:42:05.433Z,24.18
2022-10-23T08:44:55.119Z,22.60
2022-10-23T08:47:39.508Z,20.70
2022-10-23T08:50:32.153Z,20.88
2022-10-23T08:53:16.708Z,21.45
2022-10-23T08:55:51.806Z,23.62
2022-10-23T08:58:46.315Z,29.80
2022-10-23T09:01:39.106Z,23.57
2022-10-23T09:04:13.504Z,28.42
2022-10-23T09:06:57.530Z,22.30
2022-10-23T09:09:47.801Z,22.90
2022-10-23T09:12:25.875Z,22.82
2022-10-23T09:15:07.000Z,30.88
2022-10-23T09:17:42.034Z,26.25
2022-10-23T09:20:25.997Z,24.15
2022-10-23T09:23:04.223Z,26.90
2022-10-23T09:25:42.200Z,37.67
2022-10-23T09:28:23.485Z,28.52
2022-10-23T09:30:55.492Z,26.40
2022-10-23T09:33:28.859Z,23.80
2022-10-23T09:36:03.741Z,25.97
2022-10-23T09:38:41.200Z,25.15
2022-10-23T09:41:16.105Z,29.32
2022-10-23T09:43:48.232Z,27.37
2022-10-23T09:46:22.353Z,25.43
2022-10-23T09:49:03.582Z,25.27
2022-10-23T09:51:34.894Z,21.70
2022-10-23T09:54:08.415Z,25.12
2022-10-23T09:56:45.070Z,29.20
2022-10-23T09:59:22.480Z,26.57
2022-10-23T10:02:00.999Z,23.98
2022-10-23T10:04:40.311Z,24.20
2022-10-23T10:07:29.370Z,27.90
2022-10-23T10:10:01.730Z,31.70
2022-10-23T10:12:55.928Z,27.02
2022-10-23T10:15:48.708Z,26.55
2022-10-23T10:18:35.702Z,26.20
2022-10-23T10:21:19.940Z,28.80
2022-10-23T10:23:56.057Z,31.20
2022-10-23T10:26:39.947Z,22.77
2022-10-23T10:29:22.050Z,24.53
2022-10-23T10:32:00.286Z,25.60
2022-10-23T10:34:35.609Z,26.52
2022-10-23T10:37:46.068Z,26.42
2022-10-23T10:40:38.453Z,23.02
2022-10-23T10:43:19.210Z,32.40
2022-10-23T10:46:05.962Z,30.70
2022-10-23T10:49:02.207Z,31.60
2022-10-23T10:51:47.705Z,29.25
2022-10-23T10:54:28.708Z,27.67
2022-10-23T10:57:03.572Z,27.60
2022-10-23T10:59:38.410Z,29.87
2022-10-23T11:02:37.066Z,23.65
2022-10-23T11:05:37.328Z,30.00
2022-10-23T11:08:17.948Z,29.72
2022-10-23T11:10:56.125Z,30.08
2022-10-23T11:13:30.832Z,29.40
2022-10-23T11:16:05.796Z,29.30
2022-10-23T11:18:39.888Z,25.00
2022-10-23T11:21:38.496Z,25.80
2022-10-23T11:24:33.954Z,27.45
2022-10-23T11:27:37.474Z,25.23
2022-10-23T11:30:24.544Z,27.07
2022-10-23T11:33:05.299Z,27.00
2022-10-23T11:35:46.249Z,27.80
2022-10-23T11:38:27.214Z,26.93
2022-10-23T11:41:05.043Z,24.87
2022-10-23T11:43:58.650Z,29.80
2022-10-23T11:46:33.141Z,24.00
2022-10-23T11:51:41.131Z,28.05
2022-10-23T11:54:16.305Z,31.52
2022-10-23T11:57:10.317Z,30.45
2022-10-23T11:59:50.263Z,24.00
2022-10-23T12:02:32.274Z,28.02
2022-10-23T12:05:09.905Z,25.88
2022-10-23T12:07:43.496Z,28.45
2022-10-23T12:10:39.508Z,23.42
2022-10-23T12:13:33.623Z,29.07
2022-10-23T12:16:10.732Z,31.48
2022-10-23T12:18:53.551Z,21.85
2022-10-23T12:21:30.276Z,23.30
2022-10-23T12:24:10.819Z,23.32
2022-10-23T12:27:03.586Z,20.12
2022-10-23T12:29:56.268Z,21.30
2022-10-23T12:32:47.768Z,25.08
2022-10-23T12:35:35.392Z,26.85
2022-10-23T12:38:13.303Z,22.02
2022-10-23T12:41:08.968Z,20.12
2022-10-23T12:43:43.289Z,21.65
2022-10-23T12:46:37.434Z,21.02
2022-10-23T12:49:18.521Z,20.33
2022-10-23T12:51:59.716Z,21.95
2022-10-23T12:54:37.108Z,18.45
2022-10-23T12:57:22.125Z,25.68
2022-10-23T13:02:28.915Z,25.05
2022-10-23T13:05:04.259Z,22.85
2022-10-23T13:07:39.163Z,24.67
2022-10-23T13:10:19.775Z,20.88
2022-10-23T13:13:05.246Z,19.98
2022-10-23T13:15:45.558Z,22.67
2022-10-23T13:18:18.911Z,21.87
2022-10-23T13:20:57.190Z,22.22
2022-10-23T13:23:34.470Z,20.68
2022-10-23T13:26:09.020Z,27.48
2022-10-23T13:31:19.427Z,27.22
2022-10-23T13:33:55.241Z,26.52
2022-10-23T13:36:29.399Z,25.37
2022-10-23T13:39:11.739Z,28.27
2022-10-23T13:41:47.289Z,25.10
2022-10-23T13:44:23.525Z,28.10
2022-10-23T13:49:26.423Z,29.52
2022-10-23T13:51:58.823Z,27.37
2022-10-23T13:54:31.020Z,26.23
2022-10-23T13:57:03.110Z,25.55
2022-10-23T13:59:35.431Z,30.52
2022-10-23T14:02:19.348Z,27.35
2022-10-23T14:04:52.269Z,24.20
2022-10-23T14:07:24.163Z,28.12
2022-10-23T14:09:56.208Z,24.45
2022-10-23T14:12:28.330Z,24.25
2022-10-23T14:15:00.441Z,26.05
2022-10-23T14:17:33.563Z,25.27
2022-10-23T14:20:06.849Z,26.48
2022-10-23T14:22:39.055Z,25.40
2022-10-23T14:25:11.017Z,24.30
2022-10-23T14:27:42.964Z,24.05
2022-10-23T14:30:15.429Z,21.77
2022-10-23T14:32:48.209Z,19.30
2022-10-23T14:35:20.265Z,22.22
2022-10-23T14:37:52.412Z,22.45
2022-10-23T14:40:24.460Z,18.85
2022-10-23T14:42:56.471Z,19.32
2022-10-23T14:45:29.868Z,19.65
2022-10-23T14:48:02.777Z,16.67
2022-10-23T14:50:37.272Z,19.05
2022-10-23T14:55:40.527Z,19.25
2022-10-23T14:58:12.473Z,15.70
2022-10-23T15:00:44.445Z,15.45
2022-10-23T15:03:16.528Z,13.48
2022-10-23T15:05:48.492Z,17.85
2022-10-23T15:08:20.507Z,16.67
2022-10-23T15:10:52.901Z,16.85
2022-10-23T15:13:25.159Z,16.32
2022-10-23T15:16:12.555Z,15.15
2022-10-23T15:18:44.702Z,18.45
2022-10-23T15:21:17.331Z,13.55
2022-10-23T15:23:50.056Z,13.18
2022-10-23T15:26:23.825Z,15.63
2022-10-23T15:28:57.608Z,14.25
2022-10-23T15:31:41.681Z,17.17
2022-10-23T15:34:20.331Z,15.63
2022-10-23T15:36:52.884Z,17.07
2022-10-23T15:39:28.862Z,17.27
2022-10-23T15:42:01.439Z,18.20
2022-10-23T15:44:34.805Z,17.12
2022-10-23T15:47:06.855Z,16.40
2022-10-23T15:49:40.129Z,21.95
2022-10-23T15:52:12.882Z,19.92
2022-10-23T15:54:44.952Z,19.73
2022-10-23T15:57:17.707Z,16.57
2022-10-23T15:59:51.102Z,13.85
2022-10-23T16:02:23.467Z,17.45
2022-10-23T16:04:55.621Z,17.37
2022-10-23T16:07:28.526Z,15.08
2022-10-23T16:10:00.729Z,19.98
2022-10-23T16:12:32.890Z,14.90
2022-10-23T16:15:04.907Z,17.42
2022-10-23T16:17:36.839Z,17.05
2022-10-23T16:20:09.143Z,16.48
2022-10-23T16:22:44.116Z,17.60
2022-10-23T16:25:14.905Z,19.97
2022-10-23T16:27:47.424Z,26.55
2022-10-23T16:30:21.485Z,18.17
2022-10-23T16:32:55.102Z,18.92
2022-10-23T16:35:27.351Z,19.48
2022-10-23T16:38:01.162Z,17.87
2022-10-23T16:40:33.386Z,21.12
2022-10-23T16:43:25.913Z,24.98
2022-10-23T16:46:04.112Z,16.42
2022-10-23T16:48:37.109Z,16.32
2022-10-23T16:51:11.714Z,22.17
2022-10-23T16:53:44.344Z,17.55
2022-10-23T16:56:19.633Z,17.77
2022-10-23T16:58:51.712Z,16.97
2022-10-23T17:01:27.026Z,15.20
2022-10-23T17:04:00.239Z,16.73
2022-10-23T17:06:33.704Z,19.40
2022-10-23T17:09:06.613Z,14.95
2022-10-23T17:11:40.649Z,18.82
2022-10-23T17:14:15.422Z,18.23
2022-10-23T17:16:49.595Z,15.95
2022-10-23T17:22:01.114Z,21.33
2022-10-23T17:24:33.198Z,16.30
2022-10-23T17:27:05.928Z,20.88
2022-10-23T17:29:37.952Z,21.48
2022-10-23T17:32:09.958Z,18.00
2022-10-23T17:34:42.893Z,17.98
2022-10-23T17:37:14.805Z,15.48
2022-10-23T17:39:46.775Z,18.62
2022-10-23T17:42:18.777Z,17.50
2022-10-23T17:44:51.070Z,20.32
2022-10-23T17:47:23.010Z,19.45
2022-10-23T17:49:54.988Z,17.20
2022-10-23T17:52:27.083Z,14.55
2022-10-23T17:54:59.191Z,16.57
2022-10-23T17:57:32.797Z,12.60
2022-10-23T18:00:06.310Z,11.43
2022-10-23T18:02:40.211Z,14.28
2022-10-23T18:05:12.293Z,11.63
2022-10-23T18:07:44.782Z,12.40
2022-10-23T18:10:17.811Z,13.48
2022-10-23T18:12:49.791Z,16.75
2022-10-23T18:15:21.873Z,16.07
2022-10-23T18:17:54.047Z,13.70
2022-10-23T18:20:26.103Z,13.88
2022-10-23T18:22:58.076Z,11.93
2022-10-23T18:25:30.121Z,14.43
2022-10-23T18:28:02.664Z,12.70
2022-10-23T18:30:39.351Z,14.13
2022-10-23T18:33:11.530Z,14.07
2022-10-23T18:35:43.626Z,15.35
2022-10-23T18:38:16.191Z,13.90
2022-10-23T18:40:49.780Z,14.90
2022-10-23T18:43:42.165Z,14.23
2022-10-23T18:45:55.515Z,18.43
2022-10-23T18:48:40.779Z,18.10
2022-10-23T18:51:27.951Z,11.97
2022-10-23T18:54:02.669Z,13.05
2022-10-23T18:56:36.041Z,16.35
2022-10-23T18:59:10.587Z,9.98
2022-10-23T19:04:15.049Z,12.80
2022-10-23T19:06:48.692Z,12.27
2022-10-23T19:09:21.354Z,16.97
2022-10-23T19:11:53.299Z,15.50
2022-10-23T19:14:26.883Z,14.83
2022-10-23T19:17:10.709Z,10.07
2022-10-23T19:19:48.225Z,12.50
2022-10-23T19:22:20.375Z,13.22
2022-10-23T19:24:58.167Z,11.83
2022-10-23T19:27:30.991Z,10.70
2022-10-23T19:30:04.741Z,10.98
2022-10-23T19:32:35.868Z,12.00
2022-10-23T19:35:08.488Z,10.13
2022-10-23T19:37:40.787Z,10.00
2022-10-23T19:40:13.694Z,11.90
2022-10-23T19:42:45.834Z,12.03
2022-10-23T19:45:18.139Z,9.85
2022-10-23T19:47:50.210Z,11.55
2022-10-23T19:50:22.228Z,11.83
2022-10-23T19:52:54.226Z,11.03
2022-10-23T19:55:26.182Z,6.85
2022-10-23T19:57:58.162Z,6.90
2022-10-23T20:00:30.077Z,9.18
2022-10-23T20:03:02.072Z,6.10
2022-10-23T20:05:34.625Z,6.03
2022-10-23T20:08:06.872Z,5.70
2022-10-23T20:10:45.082Z,7.10
2022-10-23T20:13:20.698Z,6.30
2022-10-23T20:15:50.759Z,5.87
2022-10-23T20:18:22.626Z,11.35
2022-10-23T20:20:55.357Z,10.10
2022-10-23T20:23:27.275Z,7.55
2022-10-23T20:26:10.858Z,11.18
2022-10-23T20:28:45.076Z,7.70
2022-10-23T20:31:19.061Z,8.95
2022-10-23T20:33:51.433Z,9.68
2022-10-23T20:36:34.926Z,9.15
2022-10-23T20:39:09.086Z,8.65
2022-10-23T20:41:41.925Z,10.03
2022-10-23T20:46:49.754Z,9.48
2022-10-23T20:49:22.335Z,11.50
2022-10-23T20:51:55.906Z,14.03
2022-10-23T20:54:29.942Z,10.13
2022-10-23T20:57:01.875Z,10.75
2022-10-23T20:59:34.213Z,9.88
2022-10-23T21:02:06.317Z,9.28
2022-10-23T21:04:38.467Z,10.93
2022-10-23T21:07:11.525Z,7.85
2022-10-23T21:09:43.900Z,10.90
2022-10-23T21:12:15.801Z,11.05
2022-10-23T21:14:47.945Z,10.18
2022-10-23T21:17:20.119Z,12.15
2022-10-23T21:19:52.155Z,8.58
2022-10-23T21:22:24.215Z,10.78
2022-10-23T21:24:57.141Z,11.35
2022-10-23T21:27:29.100Z,9.85
2022-10-23T21:30:00.989Z,9.40
2022-10-23T21:32:33.366Z,16.10
2022-10-23T21:35:05.584Z,14.25
2022-10-23T21:37:37.433Z,12.80
2022-10-23T21:40:10.090Z,11.12
2022-10-23T21:42:42.065Z,13.62
2022-10-23T21:45:13.914Z,11.90
2022-10-23T21:47:46.141Z,12.13
2022-10-23T21:50:18.236Z,10.98
2022-10-23T21:52:53.675Z,12.25
2022-10-23T21:55:29.513Z,14.83
2022-10-23T21:58:01.510Z,10.70
2022-10-23T22:00:33.395Z,10.93
2022-10-23T22:03:05.284Z,12.47
2022-10-23T22:05:37.424Z,14.20
2022-10-23T22:08:09.406Z,15.70
2022-10-23T22:10:41.534Z,14.70
2022-10-23T22:13:13.573Z,12.68
2022-10-23T22:15:45.556Z,13.83
2022-10-23T22:18:17.557Z,16.25
2022-10-23T22:20:49.761Z,14.30
2022-10-23T22:23:21.809Z,13.85
2022-10-23T22:25:53.891Z,17.02
2022-10-23T22:28:25.882Z,14.68
2022-10-23T22:30:57.896Z,13.53
2022-10-23T22:33:32.150Z,13.90
2022-10-23T22:36:04.934Z,15.35
2022-10-23T22:38:36.967Z,14.83
2022-10-23T22:41:09.899Z,15.83
2022-10-23T22:43:41.763Z,15.80
2022-10-23T22:46:16.121Z,12.33
2022-10-23T22:48:48.099Z,19.35
2022-10-23T22:51:22.912Z,14.55
2022-10-23T22:53:55.319Z,12.07
2022-10-23T22:56:30.090Z,14.20
2022-10-23T23:01:35.951Z,13.55
2022-10-23T23:04:25.904Z,11.85
2022-10-23T23:06:41.489Z,14.27
2022-10-23T23:09:17.840Z,10.95
2022-10-23T23:11:52.575Z,11.28
2022-10-23T23:14:24.136Z,11.83
2022-10-23T23:16:56.124Z,11.88
2022-10-23T23:19:28.605Z,9.53
2022-10-23T23:22:01.385Z,10.48
2022-10-23T23:24:34.066Z,12.00
2022-10-23T23:27:06.093Z,9.20
2022-10-23T23:29:38.017Z,12.03
2022-10-23T23:32:11.173Z,11.15
2022-10-23T23:34:43.149Z,8.33
2022-10-23T23:37:15.107Z,8.83
2022-10-23T23:39:47.054Z,7.83
2022-10-23T23:42:19.218Z,7.03
2022-10-23T23:45:02.727Z,6.03
2022-10-23T23:47:24.766Z,7.27
2022-10-23T23:49:56.881Z,7.85
2022-10-23T23:52:28.843Z,8.25
2022-10-23T23:55:01.939Z,11.57
2022-10-23T23:57:33.864Z,9.40
